sensor_id;sensor_type;location;lat;lon;timestamp;pressure;altitude;pressure_sealevel;temperature;humidity
52319;BME280;38258;51.148;14.068;2024-01-15T00:01:08;96424.19;;;-0.21;100.00
52319;BME280;38258;51.148;14.068;2024-01-15T00:03:34;96419.81;;;-0.16;100.00
52319;BME280;38258;51.148;14.068;2024-01-15T00:06:01;96413.88;;;-0.20;100.00
52319;BME280;38258;51.148;14.068;2024-01-15T00:08:27;96416.38;;;-0.13;100.00
52319;BME280;38258;51.148;14.068;2024-01-15T00:10:55;96404.47;;;-0.19;100.00
52319;BME280;38258;51.148;14.068;2024-01-15T00:13:22;96408.00;;;-0.26;100.00
52319;BME280;38258;51.148;14.068;2024-01-15T00:15:49;96396.91;;;-0.27;100.00
52319;BME280;38258;51.148;14.068;2024-01-15T00:18:15;96406.22;;;-0.21;100.00
52319;BME280;38258;51.148;14.068;2024-01-15T00:20:42;96395.88;;;-0.18;100.00
52319;BME280;38258;51.148;14.068;2024-01-15T00:23:09;96397.53;;;-0.16;100.00
52319;BME280;38258;51.148;14.068;2024-01-15T00:25:35;96386.56;;;-0.25;100.00
52319;BME280;38258;51.148;14.068;2024-01-15T00:28:04;96387.94;;;-0.06;100.00
52319;BME280;38258;51.148;14.068;2024-01-15T00:30:31;96386.38;;;-0.15;100.00
52319;BME280;38258;51.148;14.068;2024-01-15T00:32:57;96385.00;;;-0.34;100.00
52319;BME280;38258;51.148;14.068;2024-01-15T00:35:24;96380.59;;;-0.26;100.00
52319;BME280;38258;51.148;14.068;2024-01-15T00:37:50;96381.44;;;-0.25;100.00
52319;BME280;38258;51.148;14.068;2024-01-15T00:40:17;96373.59;;;-0.18;100.00
52319;BME280;38258;51.148;14.068;2024-01-15T00:42:44;96377.97;;;-0.24;100.00
52319;BME280;38258;51.148;14.068;2024-01-15T00:45:12;96371.06;;;-0.21;100.00
52319;BME280;38258;51.148;14.068;2024-01-15T00:47:38;96379.94;;;-0.39;100.00
52319;BME280;38258;51.148;14.068;2024-01-15T00:50:06;96365.13;;;-0.24;100.00
52319;BME280;38258;51.148;14.068;2024-01-15T00:52:32;96367.03;;;-0.34;100.00
52319;BME280;38258;51.148;14.068;2024-01-15T00:54:59;96379.81;;;-0.31;100.00
52319;BME280;38258;51.148;14.068;2024-01-15T00:57:25;96359.09;;;-0.22;100.00
52319;BME280;38258;51.148;14.068;2024-01-15T00:59:52;96355.03;;;-0.34;100.00
52319;BME280;38258;51.148;14.068;2024-01-15T01:02:20;96355.19;;;-0.41;100.00
52319;BME280;38258;51.148;14.068;2024-01-15T01:04:47;96345.00;;;-0.48;100.00
52319;BME280;38258;51.148;14.068;2024-01-15T01:07:13;96343.25;;;-0.46;100.00
52319;BME280;38258;51.148;14.068;2024-01-15T01:09:40;96347.47;;;-0.41;100.00
52319;BME280;38258;51.148;14.068;2024-01-15T01:12:06;96356.00;;;-0.39;100.00
52319;BME280;38258;51.148;14.068;2024-01-15T01:14:33;96349.09;;;-0.37;100.00
52319;BME280;38258;51.148;14.068;2024-01-15T01:17:00;96354.25;;;-0.37;100.00
52319;BME280;38258;51.148;14.068;2024-01-15T01:19:28;96350.94;;;-0.46;100.00
52319;BME280;38258;51.148;14.068;2024-01-15T01:21:55;96344.19;;;-0.50;100.00
52319;BME280;38258;51.148;14.068;2024-01-15T01:24:22;96335.44;;;-0.39;100.00
52319;BME280;38258;51.148;14.068;2024-01-15T01:26:49;96325.25;;;-0.46;100.00
52319;BME280;38258;51.148;14.068;2024-01-15T01:29:15;96345.06;;;-0.52;100.00
52319;BME280;38258;51.148;14.068;2024-01-15T01:31:43;96327.06;;;-0.49;100.00
52319;BME280;38258;51.148;14.068;2024-01-15T01:34:09;96326.13;;;-0.47;100.00
52319;BME280;38258;51.148;14.068;2024-01-15T01:36:37;96330.47;;;-0.49;100.00
52319;BME280;38258;51.148;14.068;2024-01-15T01:39:04;96316.81;;;-0.52;100.00
52319;BME280;38258;51.148;14.068;2024-01-15T01:41:30;96328.56;;;-0.39;100.00
52319;BME280;38258;51.148;14.068;2024-01-15T01:43:57;96317.56;;;-0.46;100.00
52319;BME280;38258;51.148;14.068;2024-01-15T01:46:24;96305.72;;;-0.54;100.00
52319;BME280;38258;51.148;14.068;2024-01-15T01:48:51;96304.09;;;-0.57;100.00
52319;BME280;38258;51.148;14.068;2024-01-15T01:51:19;96313.38;;;-0.51;100.00
52319;BME280;38258;51.148;14.068;2024-01-15T01:53:48;96323.66;;;-0.51;100.00
52319;BME280;38258;51.148;14.068;2024-01-15T01:56:16;96316.72;;;-0.46;100.00
52319;BME280;38258;51.148;14.068;2024-01-15T01:58:44;96310.72;;;-0.47;100.00
52319;BME280;38258;51.148;14.068;2024-01-15T02:01:11;96303.28;;;-0.61;100.00
52319;BME280;38258;51.148;14.068;2024-01-15T02:03:39;96308.28;;;-0.53;100.00
52319;BME280;38258;51.148;14.068;2024-01-15T02:06:06;96315.06;;;-0.50;100.00
52319;BME280;38258;51.148;14.068;2024-01-15T02:08:33;96320.19;;;-0.47;100.00
52319;BME280;38258;51.148;14.068;2024-01-15T02:11:02;96309.25;;;-0.60;100.00
52319;BME280;38258;51.148;14.068;2024-01-15T02:13:29;96314.22;;;-0.49;100.00
52319;BME280;38258;51.148;14.068;2024-01-15T02:15:55;96309.38;;;-0.68;100.00
52319;BME280;38258;51.148;14.068;2024-01-15T02:18:22;96303.84;;;-0.45;100.00
52319;BME280;38258;51.148;14.068;2024-01-15T02:20:49;96308.28;;;-0.53;100.00
52319;BME280;38258;51.148;14.068;2024-01-15T02:23:17;96306.81;;;-0.66;100.00
52319;BME280;38258;51.148;14.068;2024-01-15T02:25:44;96298.88;;;-0.54;100.00
52319;BME280;38258;51.148;14.068;2024-01-15T02:28:13;96298.25;;;-0.67;100.00
52319;BME280;38258;51.148;14.068;2024-01-15T02:30:41;96291.31;;;-0.62;100.00
52319;BME280;38258;51.148;14.068;2024-01-15T02:33:08;96285.19;;;-0.54;100.00
52319;BME280;38258;51.148;14.068;2024-01-15T02:35:35;96284.44;;;-0.60;100.00
52319;BME280;38258;51.148;14.068;2024-01-15T02:38:03;96284.44;;;-0.60;100.00
52319;BME280;38258;51.148;14.068;2024-01-15T02:40:31;96292.19;;;-0.63;100.00
52319;BME280;38258;51.148;14.068;2024-01-15T02:42:59;96281.06;;;-0.63;100.00
52319;BME280;38258;51.148;14.068;2024-01-15T02:45:25;96271.13;;;-0.82;100.00
52319;BME280;38258;51.148;14.068;2024-01-15T02:47:52;96277.28;;;-0.94;100.00
52319;BME280;38258;51.148;14.068;2024-01-15T02:50:19;96281.00;;;-1.10;100.00
52319;BME280;38258;51.148;14.068;2024-01-15T02:52:45;96267.38;;;-1.14;100.00
52319;BME280;38258;51.148;14.068;2024-01-15T02:55:12;96280.34;;;-1.25;100.00
52319;BME280;38258;51.148;14.068;2024-01-15T02:57:40;96267.28;;;-1.09;100.00
52319;BME280;38258;51.148;14.068;2024-01-15T03:00:08;96260.38;;;-1.06;100.00
52319;BME280;38258;51.148;14.068;2024-01-15T03:02:38;96269.81;;;-1.06;100.00
52319;BME280;38258;51.148;14.068;2024-01-15T03:05:06;96264.53;;;-0.97;100.00
52319;BME280;38258;51.148;14.068;2024-01-15T03:07:33;96263.63;;;-0.94;100.00
52319;BME280;38258;51.148;14.068;2024-01-15T03:10:00;96259.31;;;-0.92;100.00
52319;BME280;38258;51.148;14.068;2024-01-15T03:12:26;96263.69;;;-0.97;100.00
52319;BME280;38258;51.148;14.068;2024-01-15T03:14:54;96257.50;;;-0.87;100.00
52319;BME280;38258;51.148;14.068;2024-01-15T03:17:21;96252.22;;;-0.76;100.00
52319;BME280;38258;51.148;14.068;2024-01-15T03:19:47;96263.50;;;-0.85;100.00
52319;BME280;38258;51.148;14.068;2024-01-15T03:22:15;96264.84;;;-0.67;100.00
52319;BME280;38258;51.148;14.068;2024-01-15T03:24:41;96259.03;;;-0.75;100.00
52319;BME280;38258;51.148;14.068;2024-01-15T03:27:08;96257.41;;;-0.81;100.00
52319;BME280;38258;51.148;14.068;2024-01-15T03:29:34;96259.84;;;-0.72;100.00
52319;BME280;38258;51.148;14.068;2024-01-15T03:32:03;96249.72;;;-0.82;100.00
52319;BME280;38258;51.148;14.068;2024-01-15T03:34:29;96261.66;;;-0.78;100.00
52319;BME280;38258;51.148;14.068;2024-01-15T03:36:56;96257.28;;;-0.73;100.00
52319;BME280;38258;51.148;14.068;2024-01-15T03:39:24;96251.34;;;-0.77;100.00
52319;BME280;38258;51.148;14.068;2024-01-15T03:41:50;96250.66;;;-0.87;100.00
52319;BME280;38258;51.148;14.068;2024-01-15T03:44:17;96258.09;;;-0.73;100.00
52319;BME280;38258;51.148;14.068;2024-01-15T03:46:43;96263.63;;;-0.93;100.00
52319;BME280;38258;51.148;14.068;2024-01-15T03:49:11;96258.22;;;-0.79;100.00
52319;BME280;38258;51.148;14.068;2024-01-15T03:51:38;96261.66;;;-0.78;100.00
52319;BME280;38258;51.148;14.068;2024-01-15T03:54:05;96264.47;;;-0.94;100.00
52319;BME280;38258;51.148;14.068;2024-01-15T03:56:31;96262.16;;;-1.09;100.00
52319;BME280;38258;51.148;14.068;2024-01-15T03:58:58;96258.66;;;-1.04;100.00
52319;BME280;38258;51.148;14.068;2024-01-15T04:01:25;96256.03;;;-1.01;100.00
52319;BME280;38258;51.148;14.068;2024-01-15T04:03:51;96264.84;;;-1.17;100.00
52319;BME280;38258;51.148;14.068;2024-01-15T04:06:19;96257.06;;;-1.11;100.00
52319;BME280;38258;51.148;14.068;2024-01-15T04:08:46;96261.22;;;-1.04;100.00
52319;BME280;38258;51.148;14.068;2024-01-15T04:11:12;96254.63;;;-1.19;100.00
52319;BME280;38258;51.148;14.068;2024-01-15T04:13:39;96250.88;;;-1.01;100.00
52319;BME280;38258;51.148;14.068;2024-01-15T04:16:06;96257.03;;;-1.09;100.00
52319;BME280;38258;51.148;14.068;2024-01-15T04:18:32;96250.25;;;-1.12;100.00
52319;BME280;38258;51.148;14.068;2024-01-15T04:20:59;96250.13;;;-1.06;100.00
52319;BME280;38258;51.148;14.068;2024-01-15T04:23:28;96237.22;;;-1.01;100.00
52319;BME280;38258;51.148;14.068;2024-01-15T04:25:54;96242.44;;;-1.06;100.00
52319;BME280;38258;51.148;14.068;2024-01-15T04:28:21;96239.78;;;-1.00;100.00
52319;BME280;38258;51.148;14.068;2024-01-15T04:30:48;96235.38;;;-0.93;100.00
52319;BME280;38258;51.148;14.068;2024-01-15T04:33:14;96232.75;;;-0.90;100.00
52319;BME280;38258;51.148;14.068;2024-01-15T04:35:43;96234.72;;;-1.06;100.00
52319;BME280;38258;51.148;14.068;2024-01-15T04:38:10;96238.22;;;-1.10;100.00
52319;BME280;38258;51.148;14.068;2024-01-15T04:40:38;96229.59;;;-1.06;100.00
52319;BME280;38258;51.148;14.068;2024-01-15T04:43:05;96237.38;;;-1.10;100.00
52319;BME280;38258;51.148;14.068;2024-01-15T04:45:31;96236.53;;;-1.11;100.00
52319;BME280;38258;51.148;14.068;2024-01-15T04:47:58;96216.16;;;-1.19;100.00
52319;BME280;38258;51.148;14.068;2024-01-15T04:50:25;96239.31;;;-1.25;100.00
52319;BME280;38258;51.148;14.068;2024-01-15T04:52:51;96240.06;;;-1.17;100.00
52319;BME280;38258;51.148;14.068;2024-01-15T04:55:18;96239.03;;;-1.08;100.00
52319;BME280;38258;51.148;14.068;2024-01-15T04:57:46;96234.16;;;-1.22;100.00
52319;BME280;38258;51.148;14.068;2024-01-15T05:00:13;96240.81;;;-1.11;100.00
52319;BME280;38258;51.148;14.068;2024-01-15T05:02:40;96242.53;;;-1.12;100.00
52319;BME280;38258;51.148;14.068;2024-01-15T05:05:06;96242.34;;;-1.01;100.00
52319;BME280;38258;51.148;14.068;2024-01-15T05:07:33;96237.56;;;-1.21;100.00
52319;BME280;38258;51.148;14.068;2024-01-15T05:10:00;96257.25;;;-1.22;100.00
52319;BME280;38258;51.148;14.068;2024-01-15T05:12:26;96229.06;;;-1.25;100.00
52319;BME280;38258;51.148;14.068;2024-01-15T05:14:54;96240.09;;;-1.20;100.00
52319;BME280;38258;51.148;14.068;2024-01-15T05:17:21;96241.94;;;-1.30;100.00
52319;BME280;38258;51.148;14.068;2024-01-15T05:19:48;96247.00;;;-1.25;100.00
52319;BME280;38258;51.148;14.068;2024-01-15T05:22:14;96252.22;;;-1.30;100.00
52319;BME280;38258;51.148;14.068;2024-01-15T05:24:41;96240.97;;;-1.21;100.00
52319;BME280;38258;51.148;14.068;2024-01-15T05:27:08;96251.31;;;-1.27;100.00
52319;BME280;38258;51.148;14.068;2024-01-15T05:29:34;96253.19;;;-1.35;100.00
52319;BME280;38258;51.148;14.068;2024-01-15T05:32:03;96250.56;;;-1.34;100.00
52319;BME280;38258;51.148;14.068;2024-01-15T05:34:29;96256.50;;;-1.29;100.00
52319;BME280;38258;51.148;14.068;2024-01-15T05:36:56;96254.13;;;-1.41;100.00
52319;BME280;38258;51.148;14.068;2024-01-15T05:39:23;96265.03;;;-1.30;100.00
52319;BME280;38258;51.148;14.068;2024-01-15T05:41:49;96258.13;;;-1.24;100.00
52319;BME280;38258;51.148;14.068;2024-01-15T05:44:16;96249.63;;;-1.26;100.00
52319;BME280;38258;51.148;14.068;2024-01-15T05:46:43;96271.06;;;-1.32;100.00
52319;BME280;38258;51.148;14.068;2024-01-15T05:49:10;96258.22;;;-1.31;100.00
52319;BME280;38258;51.148;14.068;2024-01-15T05:51:37;96254.72;;;-1.25;100.00
52319;BME280;38258;51.148;14.068;2024-01-15T05:54:04;96262.38;;;-1.23;100.00
52319;BME280;38258;51.148;14.068;2024-01-15T05:56:31;96264.13;;;-1.25;100.00
52319;BME280;38258;51.148;14.068;2024-01-15T05:58:58;96267.44;;;-1.19;100.00
52319;BME280;38258;51.148;14.068;2024-01-15T06:01:24;96272.59;;;-1.19;100.00
52319;BME280;38258;51.148;14.068;2024-01-15T06:03:52;96266.66;;;-1.24;100.00
52319;BME280;38258;51.148;14.068;2024-01-15T06:06:20;96256.56;;;-1.33;100.00
52319;BME280;38258;51.148;14.068;2024-01-15T06:08:46;96267.59;;;-1.28;100.00
52319;BME280;38258;51.148;14.068;2024-01-15T06:11:13;96252.97;;;-1.23;100.00
52319;BME280;38258;51.148;14.068;2024-01-15T06:13:40;96247.94;;;-1.27;100.00
52319;BME280;38258;51.148;14.068;2024-01-15T06:16:13;96260.75;;;-1.29;100.00
52319;BME280;38258;51.148;14.068;2024-01-15T06:18:42;96257.19;;;-1.19;100.00
52319;BME280;38258;51.148;14.068;2024-01-15T06:21:08;96251.25;;;-1.21;100.00
52319;BME280;38258;51.148;14.068;2024-01-15T06:23:37;96258.91;;;-1.19;100.00
52319;BME280;38258;51.148;14.068;2024-01-15T06:26:04;96264.09;;;-1.24;100.00
52319;BME280;38258;51.148;14.068;2024-01-15T06:28:31;96242.69;;;-1.23;100.00
52319;BME280;38258;51.148;14.068;2024-01-15T06:30:57;96247.06;;;-1.26;100.00
52319;BME280;38258;51.148;14.068;2024-01-15T06:33:24;96256.44;;;-1.27;100.00
52319;BME280;38258;51.148;14.068;2024-01-15T06:35:51;96252.06;;;-1.20;100.00
52319;BME280;38258;51.148;14.068;2024-01-15T06:38:17;96248.00;;;-1.32;100.00
52319;BME280;38258;51.148;14.068;2024-01-15T06:40:45;96258.31;;;-1.37;100.00
52319;BME280;38258;51.148;14.068;2024-01-15T06:43:13;96251.31;;;-1.27;100.00
52319;BME280;38258;51.148;14.068;2024-01-15T06:45:40;96257.91;;;-1.10;100.00
52319;BME280;38258;51.148;14.068;2024-01-15T06:48:07;96258.06;;;-1.20;100.00
52319;BME280;38258;51.148;14.068;2024-01-15T06:50:33;96256.31;;;-1.18;100.00
52319;BME280;38258;51.148;14.068;2024-01-15T06:53:00;96262.41;;;-1.25;100.00
52319;BME280;38258;51.148;14.068;2024-01-15T06:55:26;96265.00;;;-1.26;100.00
52319;BME280;38258;51.148;14.068;2024-01-15T06:57:55;96263.31;;;-1.29;100.00
52319;BME280;38258;51.148;14.068;2024-01-15T07:00:21;96259.81;;;-1.22;100.00
52319;BME280;38258;51.148;14.068;2024-01-15T07:02:48;96260.59;;;-1.18;100.00
52319;BME280;38258;51.148;14.068;2024-01-15T07:05:15;96258.94;;;-1.22;100.00
52319;BME280;38258;51.148;14.068;2024-01-15T07:07:41;96260.50;;;-1.14;100.00
52319;BME280;38258;51.148;14.068;2024-01-15T07:10:08;96260.72;;;-1.26;100.00
52319;BME280;38258;51.148;14.068;2024-01-15T07:12:35;96244.41;;;-1.22;100.00
52319;BME280;38258;51.148;14.068;2024-01-15T07:15:03;96257.06;;;-1.11;100.00
52319;BME280;38258;51.148;14.068;2024-01-15T07:17:32;96264.94;;;-1.22;100.00
52319;BME280;38258;51.148;14.068;2024-01-15T07:19:59;96270.78;;;-1.14;100.00
52319;BME280;38258;51.148;14.068;2024-01-15T07:22:25;96262.22;;;-1.12;100.00
52319;BME280;38258;51.148;14.068;2024-01-15T07:24:52;96277.78;;;-1.22;100.00
52319;BME280;38258;51.148;14.068;2024-01-15T07:27:19;96265.91;;;-1.31;100.00
52319;BME280;38258;51.148;14.068;2024-01-15T07:29:46;96276.56;;;-1.57;100.00
52319;BME280;38258;51.148;14.068;2024-01-15T07:32:15;96284.16;;;-1.51;100.00
52319;BME280;38258;51.148;14.068;2024-01-15T07:34:42;96290.84;;;-1.40;100.00
52319;BME280;38258;51.148;14.068;2024-01-15T07:37:08;96280.59;;;-1.40;100.00
52319;BME280;38258;51.148;14.068;2024-01-15T07:39:35;96282.09;;;-1.27;100.00
52319;BME280;38258;51.148;14.068;2024-01-15T07:42:02;96290.03;;;-1.44;100.00
52319;BME280;38258;51.148;14.068;2024-01-15T07:44:28;96301.06;;;-1.37;100.00
52319;BME280;38258;51.148;14.068;2024-01-15T07:46:55;96293.47;;;-1.42;100.00
52319;BME280;38258;51.148;14.068;2024-01-15T07:49:23;96301.97;;;-1.42;100.00
52319;BME280;38258;51.148;14.068;2024-01-15T07:51:49;96282.28;;;-1.39;100.00
52319;BME280;38258;51.148;14.068;2024-01-15T07:54:16;96300.97;;;-1.31;100.00
52319;BME280;38258;51.148;14.068;2024-01-15T07:56:56;96280.81;;;-1.54;100.00
52319;BME280;38258;51.148;14.068;2024-01-15T07:59:22;96285.03;;;-1.52;100.00
52319;BME280;38258;51.148;14.068;2024-01-15T08:01:49;96267.81;;;-1.42;100.00
52319;BME280;38258;51.148;14.068;2024-01-15T08:04:15;96295.16;;;-1.44;100.00
52319;BME280;38258;51.148;14.068;2024-01-15T08:06:43;96297.88;;;-1.53;100.00
52319;BME280;38258;51.148;14.068;2024-01-15T08:09:10;96299.38;;;-1.38;100.00
52319;BME280;38258;51.148;14.068;2024-01-15T08:11:39;96300.28;;;-1.44;100.00
52319;BME280;38258;51.148;14.068;2024-01-15T08:14:06;96299.41;;;-1.40;100.00
52319;BME280;38258;51.148;14.068;2024-01-15T08:16:33;96301.88;;;-1.34;100.00
52319;BME280;38258;51.148;14.068;2024-01-15T08:19:00;96300.16;;;-1.35;100.00
52319;BME280;38258;51.148;14.068;2024-01-15T08:21:26;96293.28;;;-1.31;100.00
52319;BME280;38258;51.148;14.068;2024-01-15T08:23:56;96300.94;;;-1.30;100.00
52319;BME280;38258;51.148;14.068;2024-01-15T08:26:23;96305.06;;;-1.18;100.00
52319;BME280;38258;51.148;14.068;2024-01-15T08:28:50;96305.88;;;-1.17;100.00
52319;BME280;38258;51.148;14.068;2024-01-15T08:31:16;96302.44;;;-1.15;100.00
52319;BME280;38258;51.148;14.068;2024-01-15T08:33:43;96299.81;;;-1.10;100.00
52319;BME280;38258;51.148;14.068;2024-01-15T08:36:10;96308.69;;;-1.31;100.00
52319;BME280;38258;51.148;14.068;2024-01-15T08:38:36;96312.81;;;-1.22;100.00
52319;BME280;38258;51.148;14.068;2024-01-15T08:41:04;96314.34;;;-1.09;100.00
52319;BME280;38258;51.148;14.068;2024-01-15T08:43:31;96317.19;;;-1.27;100.00
52319;BME280;38258;51.148;14.068;2024-01-15T08:45:58;96310.72;;;-0.97;100.00
52319;BME280;38258;51.148;14.068;2024-01-15T08:48:25;96319.03;;;-0.82;100.00
52319;BME280;38258;51.148;14.068;2024-01-15T08:50:52;96314.81;;;-0.85;100.00
52319;BME280;38258;51.148;14.068;2024-01-15T08:53:20;96310.44;;;-0.78;100.00
52319;BME280;38258;51.148;14.068;2024-01-15T08:55:47;96310.72;;;-0.97;100.00
52319;BME280;38258;51.148;14.068;2024-01-15T08:58:16;96307.19;;;-0.90;100.00
52319;BME280;38258;51.148;14.068;2024-01-15T09:00:43;96305.31;;;-0.80;100.00
52319;BME280;38258;51.148;14.068;2024-01-15T09:03:10;96300.19;;;-0.80;100.00
52319;BME280;38258;51.148;14.068;2024-01-15T09:05:37;96307.81;;;-0.77;100.00
52319;BME280;38258;51.148;14.068;2024-01-15T09:08:04;96307.03;;;-0.80;100.00
52319;BME280;38258;51.148;14.068;2024-01-15T09:10:30;96308.44;;;-0.62;100.00
52319;BME280;38258;51.148;14.068;2024-01-15T09:12:57;96310.94;;;-0.59;100.00
52319;BME280;38258;51.148;14.068;2024-01-15T09:15:25;96307.38;;;-0.50;100.00
52319;BME280;38258;51.148;14.068;2024-01-15T09:17:53;96312.53;;;-0.52;100.00
52319;BME280;38258;51.148;14.068;2024-01-15T09:20:19;96302.84;;;-0.36;100.00
52319;BME280;38258;51.148;14.068;2024-01-15T09:22:46;96306.50;;;-0.49;100.00
52319;BME280;38258;51.148;14.068;2024-01-15T09:25:12;96306.78;;;-0.18;100.00
52319;BME280;38258;51.148;14.068;2024-01-15T09:27:39;96322.03;;;-0.10;100.00
52319;BME280;38258;51.148;14.068;2024-01-15T09:30:06;96323.31;;;0.13;100.00
52319;BME280;38258;51.148;14.068;2024-01-15T09:32:35;96324.16;;;0.13;100.00
52319;BME280;38258;51.148;14.068;2024-01-15T09:35:01;96316.72;;;-0.01;100.00
52319;BME280;38258;51.148;14.068;2024-01-15T09:37:28;96338.75;;;-0.33;100.00
52319;BME280;38258;51.148;14.068;2024-01-15T09:39:54;96324.56;;;0.36;100.00
52319;BME280;38258;51.148;14.068;2024-01-15T09:42:23;96323.03;;;0.27;100.00
52319;BME280;38258;51.148;14.068;2024-01-15T09:44:50;96311.03;;;0.29;100.00
52319;BME280;38258;51.148;14.068;2024-01-15T09:47:18;96326.34;;;0.75;100.00
52319;BME280;38258;51.148;14.068;2024-01-15T09:49:46;96318.81;;;0.64;100.00
52319;BME280;38258;51.148;14.068;2024-01-15T09:52:14;96307.75;;;0.21;100.00
52319;BME280;38258;51.148;14.068;2024-01-15T09:54:43;96317.16;;;0.22;100.00
52319;BME280;38258;51.148;14.068;2024-01-15T09:57:10;96314.09;;;0.03;100.00
52319;BME280;38258;51.148;14.068;2024-01-15T09:59:37;96308.38;;;-0.10;100.00
52319;BME280;38258;51.148;14.068;2024-01-15T10:02:06;96304.13;;;-0.13;100.00
52319;BME280;38258;51.148;14.068;2024-01-15T10:04:33;96307.72;;;0.22;100.00
52319;BME280;38258;51.148;14.068;2024-01-15T10:07:02;96298.81;;;-0.04;100.00
52319;BME280;38258;51.148;14.068;2024-01-15T10:09:29;96303.47;;;0.20;100.00
52319;BME280;38258;51.148;14.068;2024-01-15T10:11:56;96300.66;;;-0.10;100.00
52319;BME280;38258;51.148;14.068;2024-01-15T10:14:24;96309.00;;;0.01;100.00
52319;BME280;38258;51.148;14.068;2024-01-15T10:16:50;96305.25;;;0.16;100.00
52319;BME280;38258;51.148;14.068;2024-01-15T10:19:17;96294.34;;;0.05;100.00
52319;BME280;38258;51.148;14.068;2024-01-15T10:21:44;96302.34;;;-0.09;100.00
52319;BME280;38258;51.148;14.068;2024-01-15T10:24:13;96304.84;;;-0.06;100.00
52319;BME280;38258;51.148;14.068;2024-01-15T10:26:40;96292.94;;;-0.10;100.00
52319;BME280;38258;51.148;14.068;2024-01-15T10:29:06;96308.38;;;-0.12;100.00
52319;BME280;38258;51.148;14.068;2024-01-15T10:31:33;96295.59;;;-0.13;100.00
52319;BME280;38258;51.148;14.068;2024-01-15T10:34:10;96299.72;;;-0.06;100.00
52319;BME280;38258;51.148;14.068;2024-01-15T10:36:39;96285.56;;;0.15;100.00
52319;BME280;38258;51.148;14.068;2024-01-15T10:39:06;96289.59;;;-0.16;100.00
52319;BME280;38258;51.148;14.068;2024-01-15T10:41:35;96293.44;;;0.09;100.00
52319;BME280;38258;51.148;14.068;2024-01-15T10:44:01;96293.94;;;0.25;100.00
52319;BME280;38258;51.148;14.068;2024-01-15T10:46:28;96289.31;;;0.00;100.00
52319;BME280;38258;51.148;14.068;2024-01-15T10:48:56;96288.16;;;0.15;100.00
52319;BME280;38258;51.148;14.068;2024-01-15T10:51:23;96287.19;;;-0.23;100.00
52319;BME280;38258;51.148;14.068;2024-01-15T10:53:52;96290.25;;;-0.04;100.00
52319;BME280;38258;51.148;14.068;2024-01-15T10:56:21;96283.97;;;0.11;100.00
52319;BME280;38258;51.148;14.068;2024-01-15T10:58:50;96279.88;;;0.01;100.00
52319;BME280;38258;51.148;14.068;2024-01-15T11:01:17;96295.34;;;0.40;100.00
52319;BME280;38258;51.148;14.068;2024-01-15T11:03:45;96284.59;;;0.22;100.00
52319;BME280;38258;51.148;14.068;2024-01-15T11:06:18;96276.41;;;0.42;100.00
52319;BME280;38258;51.148;14.068;2024-01-15T11:08:46;96287.41;;;0.49;100.00
52319;BME280;38258;51.148;14.068;2024-01-15T11:11:15;96279.53;;;0.18;100.00
52319;BME280;38258;51.148;14.068;2024-01-15T11:13:42;96278.00;;;0.09;100.00
52319;BME280;38258;51.148;14.068;2024-01-15T11:16:12;96284.09;;;0.46;100.00
52319;BME280;38258;51.148;14.068;2024-01-15T11:18:40;96276.72;;;0.30;100.00
52319;BME280;38258;51.148;14.068;2024-01-15T11:21:20;96279.28;;;0.30;100.00
52319;BME280;38258;51.148;14.068;2024-01-15T11:23:53;96274.56;;;0.10;100.00
52319;BME280;38258;51.148;14.068;2024-01-15T11:26:35;96267.81;;;1.84;100.00
52319;BME280;38258;51.148;14.068;2024-01-15T11:29:03;96253.41;;;1.45;100.00
52319;BME280;38258;51.148;14.068;2024-01-15T11:31:59;96281.94;;;1.03;100.00
52319;BME280;38258;51.148;14.068;2024-01-15T11:34:56;96276.81;;;0.99;100.00
52319;BME280;38258;51.148;14.068;2024-01-15T11:37:28;96254.13;;;1.16;100.00
52319;BME280;38258;51.148;14.068;2024-01-15T11:39:56;96262.34;;;1.63;100.00
52319;BME280;38258;51.148;14.068;2024-01-15T11:42:27;96252.78;;;1.35;100.00
52319;BME280;38258;51.148;14.068;2024-01-15T11:44:53;96255.03;;;1.81;99.95
52319;BME280;38258;51.148;14.068;2024-01-15T11:47:40;96247.50;;;1.40;99.32
52319;BME280;38258;51.148;14.068;2024-01-15T11:50:12;96257.44;;;1.21;100.00
52319;BME280;38258;51.148;14.068;2024-01-15T11:52:43;96256.00;;;0.74;100.00
52319;BME280;38258;51.148;14.068;2024-01-15T11:55:19;96263.00;;;0.30;100.00
52319;BME280;38258;51.148;14.068;2024-01-15T11:57:50;96252.13;;;0.17;100.00
52319;BME280;38258;51.148;14.068;2024-01-15T12:00:18;96252.09;;;0.56;100.00
52319;BME280;38258;51.148;14.068;2024-01-15T12:02:47;96250.22;;;0.25;100.00
52319;BME280;38258;51.148;14.068;2024-01-15T12:05:16;96257.84;;;0.30;100.00
52319;BME280;38258;51.148;14.068;2024-01-15T12:07:44;96245.50;;;0.46;100.00
52319;BME280;38258;51.148;14.068;2024-01-15T12:10:12;96253.44;;;0.35;100.00
52319;BME280;38258;51.148;14.068;2024-01-15T12:12:59;96251.31;;;0.15;100.00
52319;BME280;38258;51.148;14.068;2024-01-15T12:15:27;96241.47;;;0.72;100.00
52319;BME280;38258;51.148;14.068;2024-01-15T12:17:57;96252.34;;;0.47;100.00
52319;BME280;38258;51.148;14.068;2024-01-15T12:20:24;96244.56;;;0.48;100.00
52319;BME280;38258;51.148;14.068;2024-01-15T12:22:51;96245.44;;;0.47;100.00
52319;BME280;38258;51.148;14.068;2024-01-15T12:25:18;96239.56;;;0.44;100.00
52319;BME280;38258;51.148;14.068;2024-01-15T12:27:44;96247.56;;;0.67;100.00
52319;BME280;38258;51.148;14.068;2024-01-15T12:30:12;96258.53;;;0.38;100.00
52319;BME280;38258;51.148;14.068;2024-01-15T12:32:40;96240.19;;;0.53;100.00
52319;BME280;38258;51.148;14.068;2024-01-15T12:35:09;96243.13;;;0.36;100.00
52319;BME280;38258;51.148;14.068;2024-01-15T12:37:36;96248.13;;;0.42;100.00
52319;BME280;38258;51.148;14.068;2024-01-15T12:40:03;96239.28;;;0.54;100.00
52319;BME280;38258;51.148;14.068;2024-01-15T12:42:32;96236.97;;;0.44;100.00
52319;BME280;38258;51.148;14.068;2024-01-15T12:44:59;96237.13;;;0.36;100.00